Latest Coastal Weather Observations for Port Macquarie Airport

IDN60701

Issued at 7:41 pm EST Sunday 31 July 2016 (issued every 10 minutes, with the page automatically refreshed every 10 minutes)

About coastal observations | Map of coastal stations | Coastal observations for NSW | Marine services | Other Formats
Station Details ID: 060139 Name: PORT MACQUARIE AIRPORT AWS Lat: -31.43 Lon: 152.87 Height: 4.2 m
Data from the previous 72 hours. | See also: Recent months at Port Macquarie Airport
Date/Time
EST
Temp
°C
Wind Pressure Rain since
9am
mm
Weather Cloud Vis
km
Sea
Height
m
Swell
Dir  Spd
kts
Gust
kts
hPa Trend Height
m
Period
s
Dir
31/07:30pm 9.0 NW 3 5 1017.5 - 0.0 - - 10 - - - -
31/07:00pm 8.9 S 4 5 1017.3 - 0.0 - - 10 - - - -
31/06:30pm 9.9 WNW 4 5 1017.0 - 0.0 - - 10 - - - -
31/06:00pm 11.9 CALM 0 0 1016.8 - 0.0 - - 10 - - - -
31/05:30pm 14.1 CALM 0 0 1016.6 - 0.0 - - 10 - - - -
31/05:00pm 17.4 NE 3 4 1016.3 - 0.0 - - 10 - - - -
31/04:30pm 18.7 NE 5 6 1016.0 - 0.0 - - 10 - - - -
31/04:00pm 20.2 NE 4 6 1015.7 - 0.0 - - 10 - - - -
31/03:30pm 21.1 NE 6 7 1015.3 - 0.0 - - 10 - - - -
31/03:00pm 21.9 S 3 6 1015.5 - 0.0 - - 10 - - - -
31/02:30pm 21.4 SSE 5 7 1015.7 - 0.0 - - 10 - - - -
31/02:00pm 21.4 SE 8 11 1015.6 - 0.0 - - 10 - - - -
31/01:30pm 22.3 SSW 7 9 1015.7 - 0.0 - - 10 - - - -
31/01:00pm 22.1 WSW 5 9 1015.8 - 0.0 - - 10 - - - -
31/12:30pm 21.5 WNW 5 6 1016.0 - 0.0 - - 10 - - - -
31/12:00pm 20.4 W 5 7 1016.5 - 0.0 - - 10 - - - -
31/11:30am 20.0 NNW 5 7 1017.0 - 0.0 - - 10 - - - -
31/11:00am 19.0 NW 5 8 1017.3 - 0.0 - - 10 - - - -
31/10:30am 17.5 NNW 8 9 1018.0 - 0.0 - - 10 - - - -
31/10:00am 15.6 NW 7 8 1018.5 - 0.0 - - 10 - - - -
31/09:30am 14.1 WNW 9 12 1018.6 - 0.0 - - 10 - - - -
31/09:00am 12.5 WNW 7 9 1018.9 - 0.0 - - 10 - - - -
31/08:30am 10.7 WNW 7 9 1018.6 - 0.0 - - 10 - - - -
31/08:00am 9.0 NW 6 9 1018.7 - 0.0 - - 10 - - - -
31/07:30am 8.1 WNW 5 8 1018.6 - 0.0 - - 10 - - - -
31/07:00am 6.5 NNW 3 5 1018.3 - 0.0 - - 10 - - - -
31/06:30am 6.8 NNW 3 4 1018.1 - 0.0 - - 10 - - - -
31/06:00am 6.9 WNW 1 4 1018.0 - 0.0 - Mostly cloudy 10 - - - -
31/05:30am 6.7 NW 3 4 1017.9 - 0.0 - - 10 - - - -
31/05:00am 6.8 CALM 0 0 1017.7 - 0.0 - - 10 - - - -
31/04:30am 6.6 NNW 4 5 1017.5 - 0.0 - - 10 - - - -
31/04:29am 6.6 NNW 4 5 1017.5 - 0.0 - - 10 - - - -
31/04:11am 6.1 CALM 0 0 1017.7 - 0.0 - - 5 - - - -
31/04:08am 5.2 CALM 0 0 1017.7 - 0.0 - - 10 - - - -
31/04:00am 6.2 CALM 0 0 1017.8 - 0.0 - - 10 - - - -
31/03:49am 5.5 CALM 0 3 1017.8 - 0.0 - - 5 - - - -
31/03:30am 6.7 CALM 0 0 1018.0 - 0.0 - - 10 - - - -
31/03:00am 7.4 WNW 4 6 1018.1 - 0.0 - Mostly clear 10 - - - -
31/02:30am 8.1 NW 3 4 1018.4 - 0.0 - - 10 - - - -
31/02:00am 8.1 NW 4 4 1018.6 - 0.0 - - 10 - - - -
31/01:30am 8.0 CALM 0 0 1019.3 - 0.0 - - 10 - - - -
31/01:00am 7.9 CALM 0 3 1019.7 - 0.0 - - 10 - - - -
31/12:30am 7.4 CALM 0 0 1020.0 - 0.0 - - 10 - - - -
31/12:01am 6.8 NW 3 4 1020.4 - 0.0 - - 10 - - - -
31/12:00am 6.8 NW 3 4 1020.4 - 0.0 - Cloudy 10 - - - -
 
Date/Time
EST
Temp
°C
Wind Pressure Rain since
9am
mm
Weather Cloud Vis
km
Sea
Height
m
Swell
Dir  Spd
kts
Gust
kts
hPa Trend Height
m
Period
s
Dir
30/11:41pm 6.1 CALM 0 0 1020.5 - 0.0 - - 2 - - - -
30/11:40pm 6.1 CALM 0 0 1020.5 - 0.0 - - 6 - - - -
30/11:30pm 6.1 CALM 0 0 1020.6 - 0.0 - - 5 - - - -
30/11:00pm 6.1 CALM 0 0 1020.9 - 0.0 - - 0.9 - - - -
30/10:43pm 7.0 CALM 0 0 1020.9 - 0.0 - - 5 - - - -
30/10:31pm 6.3 W 1 3 1020.9 - 0.0 - - 10 - - - -
30/10:30pm 6.3 W 1 3 1020.9 - 0.0 - - 10 - - - -
30/10:00pm 5.8 CALM 0 0 1020.5 - 0.0 - - 1 - - - -
30/09:30pm 5.9 CALM 0 0 1020.3 - 0.0 - - 0.3 - - - -
30/09:00pm 7.0 CALM 0 0 1020.4 - 0.0 - - 10 - - - -
30/08:30pm 6.6 CALM 0 0 1020.4 - 0.0 - - 1 - - - -
30/08:24pm 7.5 CALM 0 0 1020.5 - 0.0 - - 4 - - - -
30/08:13pm 7.9 CALM 0 0 1020.3 - 0.0 - - 10 - - - -
30/08:00pm 8.1 CALM 0 0 1020.4 - 0.0 - - 2 - - - -
30/07:37pm 8.6 CALM 0 0 1020.7 - 0.0 - - 3 - - - -
30/07:30pm 8.8 CALM 0 0 1020.7 - 0.0 - - 10 - - - -
30/07:00pm 9.0 CALM 0 0 1020.7 - 0.0 - - 10 - - - -
30/06:30pm 10.5 CALM 0 0 1020.5 - 0.0 - - 10 - - - -
30/06:00pm 11.8 CALM 0 1 1020.3 - 0.0 - - 10 - - - -
30/05:30pm 13.4 ESE 2 4 1020.0 - 0.0 - - 10 - - - -
30/05:00pm 15.4 ESE 5 6 1019.7 - 0.0 - - 10 - - - -
30/04:30pm 17.0 ESE 5 7 1019.4 - 0.0 - - 10 - - - -
30/04:00pm 17.8 SE 6 8 1019.5 - 0.0 - - 10 - - - -
30/03:30pm 18.2 SE 7 8 1019.5 - 0.0 - - 10 - - - -
30/03:00pm 18.6 SE 5 9 1019.5 - 0.0 - - 10 - - - -
30/02:30pm 19.0 SE 7 9 1019.7 - 0.0 - Partly cloudy 10 - - - -
30/02:00pm 19.8 NW 2 5 1019.8 - 0.0 - Partly cloudy 10 - - - -
30/01:30pm 19.4 NE 4 7 1019.8 - 0.0 - Partly cloudy 10 - - - -
30/01:00pm 19.0 WNW 3 7 1020.1 - 0.0 - - 10 - - - -
30/12:30pm 18.7 WNW 2 5 1020.5 - 0.0 - - 10 - - - -
30/12:00pm 17.9 S 4 8 1021.0 - 0.0 - - 10 - - - -
30/11:30am 17.6 W 5 8 1021.6 - 0.0 - - 10 - - - -
30/11:00am 16.7 WNW 6 9 1021.8 - 0.0 - - 10 - - - -
30/10:30am 15.2 WNW 7 8 1022.2 - 0.0 - - 10 - - - -
30/10:00am 13.6 W 7 11 1022.4 - 0.0 - - 10 - - - -
30/09:30am 12.4 W 8 11 1022.5 - 0.0 - - 10 - - - -
30/09:00am 10.6 W 7 9 1022.6 - 0.0 - - 10 - - - -
30/08:30am 9.3 W 7 11 1022.6 - 0.0 - - 10 - - - -
30/08:00am 7.8 WNW 6 9 1022.2 - 0.0 - - 10 - - - -
30/07:30am 6.4 W 4 7 1022.2 - 0.0 - - 10 - - - -
30/07:00am 4.5 SSW 3 7 1022.0 - 0.0 - - 10 - - - -
30/06:30am 2.4 SW 2 4 1021.8 - 0.0 - - 10 - - - -
30/06:00am 3.1 W 3 4 1021.4 - 0.0 - - 10 - - - -
30/05:30am 3.4 WSW 4 5 1021.2 - 0.0 - - 10 - - - -
30/05:00am 4.2 SW 1 3 1020.8 - 0.0 - - 10 - - - -
30/04:30am 3.2 WSW 5 6 1020.6 - 0.0 - - 10 - - - -
30/04:00am 3.4 W 4 5 1020.4 - 0.0 - - 10 - - - -
30/03:30am 3.1 WNW 3 4 1020.4 - 0.0 - - 10 - - - -
30/03:13am 3.2 W 3 5 1020.4 - 0.0 - - 10 - - - -
30/03:00am 3.8 CALM 0 3 1020.3 - 0.0 - - 2 - - - -
30/02:50am 3.3 WNW 2 4 1020.3 - 0.0 - - 5 - - - -
30/02:30am 6.2 NW 2 4 1020.2 - 0.0 - - 10 - - - -
30/02:00am 3.3 W 3 4 1020.4 - 0.0 - - 10 - - - -
30/01:30am 4.1 CALM 0 0 1020.4 - 0.0 - - - - - - -
30/01:00am 4.0 CALM 0 0 1020.3 - 0.0 - - - - - - -
30/12:30am 4.1 CALM 0 0 1020.2 - 0.0 - - - - - - -
30/12:07am 4.0 SW 3 4 1020.0 - 0.0 - - 0.3 - - - -
30/12:00am 4.8 SSW 4 5 1020.1 - 0.0 - - 0.5 - - - -
 
Date/Time
EST
Temp
°C
Wind Pressure Rain since
9am
mm
Weather Cloud Vis
km
Sea
Height
m
Swell
Dir  Spd
kts
Gust
kts
hPa Trend Height
m
Period
s
Dir
29/11:30pm 4.5 WSW 3 4 1020.0 - 0.0 - - 0.5 - - - -
29/11:19pm 4.0 WNW 3 4 1020.0 - 0.0 - - 3 - - - -
29/11:15pm 4.3 WNW 2 4 1019.9 - 0.0 - - 10 - - - -
29/11:00pm 4.6 CALM 0 0 1020.0 - 0.0 - - 0.9 - - - -
29/10:30pm 5.0 CALM 0 0 1020.0 - 0.0 - - 0.3 - - - -
29/10:00pm 5.0 WSW 1 3 1019.9 - 0.0 - - 0.9 - - - -
29/09:57pm 4.9 WSW 1 3 1019.9 - 0.0 - - 5 - - - -
29/09:43pm 5.4 CALM 0 0 1019.8 - 0.0 - - 10 - - - -
29/09:30pm 6.3 CALM 0 0 1019.8 - 0.0 - - 2 - - - -
29/09:23pm 6.1 CALM 0 0 1019.8 - 0.0 - - 4 - - - -
29/09:02pm 6.5 WSW 3 4 1019.8 - 0.0 - - 10 - - - -
29/09:00pm 6.6 WSW 3 4 1019.8 - 0.0 - - 10 - - - -
29/08:30pm 7.3 CALM 0 0 1019.7 - 0.0 - - 0.5 - - - -
29/08:26pm 7.4 CALM 0 0 1019.7 - 0.0 - - 3 - - - -
29/08:00pm 8.4 CALM 0 0 1019.6 - 0.0 - - 10 - - - -
29/07:58pm 8.4 CALM 0 0 1019.6 - 0.0 - - 10 - - - -
29/07:30pm 7.9 CALM 0 0 1019.4 - 0.0 - - 7 - - - -
29/07:13pm 8.6 CALM 0 0 1019.2 - 0.0 - - 5 - - - -
29/07:00pm 9.3 CALM 0 0 1019.1 - 0.0 - - 10 - - - -
29/06:30pm 9.9 CALM 0 0 1018.9 - 0.0 - - 10 - - - -
29/06:00pm 11.3 CALM 0 0 1018.7 - 0.0 - - 10 - - - -
29/05:30pm 13.0 S 1 3 1018.4 - 0.0 - - 10 - - - -
29/05:00pm 15.4 E 3 4 1018.2 - 0.0 - - 10 - - - -
29/04:30pm 17.2 ESE 4 5 1018.1 - 0.0 - - 10 - - - -
29/04:00pm 18.0 ESE 4 5 1018.1 - 0.0 - - 10 - - - -
29/03:30pm 18.2 S 5 7 1018.2 - 0.0 - - 10 - - - -
29/03:00pm 18.2 SE 5 7 1018.5 - 0.0 - - 10 - - - -
29/02:30pm 17.9 SE 7 9 1018.8 - 0.0 - - 10 - - - -
29/02:00pm 18.3 SE 8 10 1019.1 - 0.0 - - 10 - - - -
29/01:30pm 18.5 SSE 7 9 1019.2 - 0.0 - - 10 - - - -
29/01:00pm 19.2 ENE 6 10 1019.4 - 0.0 - - 10 - - - -
29/12:30pm 18.3 E 6 8 1020.1 - 0.0 - - 10 - - - -
29/12:00pm 18.0 ENE 5 8 1020.7 - 0.0 - - 10 - - - -
29/11:30am 17.9 NNE 6 9 1021.2 - 0.0 - - 10 - - - -
29/11:00am 17.4 E 2 5 1021.7 - 0.0 - - 10 - - - -
29/10:30am 15.6 W 3 5 1022.3 - 0.0 - - 10 - - - -
29/10:00am 14.4 NW 4 7 1022.9 - 0.0 - - 10 - - - -
29/09:30am 12.8 NW 5 7 1023.2 - 0.0 - - 10 - - - -
29/09:00am 11.6 WNW 4 6 1023.4 - 0.0 - - 10 - - - -
29/08:30am 10.2 W 5 6 1023.2 - 0.0 - - 10 - - - -
29/08:00am 8.6 W 4 6 1023.2 - 0.0 - - 10 - - - -
29/07:30am 6.8 W 4 5 1023.1 - 0.0 - - 10 - - - -
29/07:00am 4.1 W 3 4 1022.8 - 0.0 - - 10 - - - -
29/06:30am 4.2 WSW 3 5 1022.7 - 0.0 - - 10 - - - -
29/06:00am 4.0 W 4 5 1022.5 - 0.0 - - 10 - - - -
29/05:30am 5.0 WSW 4 6 1022.4 - 0.0 - - 10 - - - -
29/05:00am 3.5 SW 4 5 1022.2 - 0.0 - - 10 - - - -
29/04:30am 6.2 W 4 6 1022.1 - 0.0 - - 10 - - - -
29/04:00am 5.7 W 3 5 1021.9 - 0.0 - - 10 - - - -
29/03:30am 6.2 W 3 5 1022.0 - 0.0 - - 10 - - - -
29/03:00am 5.8 WNW 3 5 1022.0 - 0.0 - - 10 - - - -
29/02:30am 6.7 W 4 6 1022.0 - 0.0 - - 10 - - - -
29/02:00am 6.4 W 3 4 1022.0 - 0.0 - - 10 - - - -
29/01:30am 6.0 W 2 4 1022.0 - 0.0 - - 10 - - - -
29/01:00am 6.4 NW 3 5 1022.2 - 0.0 - - 10 - - - -
29/12:30am 5.3 NW 4 5 1022.4 - 0.0 - - 10 - - - -
29/12:28am 5.2 NW 4 5 1022.5 - 0.0 - - 10 - - - -
29/12:01am 3.8 CALM 0 0 1022.6 - 0.0 - - 4 - - - -
29/12:00am 3.8 CALM 0 0 1022.6 - 0.0 - - 6 - - - -
 
Date/Time
EST
Temp
°C
Wind Pressure Rain since
9am
mm
Weather Cloud Vis
km
Sea
Height
m
Swell
Dir  Spd
kts
Gust
kts
hPa Trend Height
m
Period
s
Dir
28/11:33pm 4.8 CALM 0 0 1022.6 - 0.0 - - 10 - - - -
28/11:30pm 4.6 CALM 0 0 1022.6 - 0.0 - - 10 - - - -
28/11:00pm 3.6 CALM 0 0 1023.0 - 0.0 - - 2 - - - -
28/10:56pm 3.6 CALM 0 0 1023.0 - 0.0 - - 5 - - - -
28/10:30pm 4.5 CALM 0 0 1023.0 - 0.0 - - 10 - - - -
28/10:00pm 3.6 CALM 0 0 1023.1 - 0.0 - - 10 - - - -
28/09:56pm 4.5 CALM 0 0 1023.1 - 0.0 - - 10 - - - -
28/09:36pm 4.6 CALM 0 0 1023.2 - 0.0 - - 4 - - - -
28/09:30pm 4.4 CALM 0 0 1023.2 - 0.0 - - 10 - - - -
28/09:15pm 4.6 CALM 0 0 1023.2 - 0.0 - - 8 - - - -
28/09:00pm 4.5 CALM 0 0 1023.2 - 0.0 - - 2 - - - -
28/08:55pm 5.0 CALM 0 0 1023.2 - 0.0 - - 5 - - - -
28/08:30pm 5.5 CALM 0 0 1023.3 - 0.0 - - 10 - - - -
28/08:00pm 5.5 CALM 0 0 1023.2 - 0.0 - - 10 - - - -

Other Formats:

Comma delimited format used in spreadsheet applications
http://www.bom.gov.au/fwo/IDN60701/IDN60701.94786.axf

JavaScript Object Notation format (JSON) in row-major order
http://www.bom.gov.au/fwo/IDN60701/IDN60701.94786.json